Time;durP1;ratioP1;P1;durP2;ratioP2;P2;SDS_P1;SDS_P2;PMS_P1;PMS_P2;Temp;Humidity;BMP_temperature;BMP_pressure;BME280_temperature;BME280_humidity;BME280_pressure;Samples;Min_cycle;Max_cycle;Signal;HPM_P1;HPM_P2
2021/04/01 00:00:02;;;;;;;3.53;1.05;;;17.00;47.10;16.70;99969.00;;;;345206;28;90817;-91
2021/04/01 00:00:16;;;;;;;4.60;1.02;;;17.10;47.60;16.90;99973.00;;;;340425;28;83408;-91
2021/04/01 00:00:30;;;;;;;3.88;1.00;;;17.00;47.00;16.90;99967.00;;;;342591;28;91999;-92
2021/04/01 00:00:45;;;;;;;3.65;1.10;;;17.00;46.80;16.90;99976.00;;;;343005;28;82381;-92
2021/04/01 00:00:57;;;;;;;4.05;1.10;;;17.00;46.90;16.80;99973.00;;;;343349;28;91142;-92
2021/04/01 00:01:10;;;;;;;4.88;1.13;;;17.00;46.80;16.80;99967.00;;;;345279;28;83729;-91
2021/04/01 00:01:21;;;;;;;4.38;1.13;;;17.00;47.10;16.80;99960.00;;;;345839;28;92444;-92
2021/04/01 00:01:32;;;;;;;3.28;1.10;;;17.00;46.90;16.70;99968.00;;;;345763;28;84700;-92
2021/04/01 00:01:45;;;;;;;3.03;1.20;;;17.00;47.00;16.70;99969.00;;;;342749;28;88496;-91
2021/04/01 00:01:57;;;;;;;3.08;1.33;;;17.00;47.00;16.80;99966.00;;;;342913;28;84021;-92
2021/04/01 00:02:08;;;;;;;4.13;1.60;;;17.00;46.80;16.70;99970.00;;;;342776;28;91641;-92
2021/04/01 00:02:27;;;;;;;4.47;1.30;;;16.90;47.10;16.70;99965.00;;;;340414;28;83564;-91
2021/04/01 00:02:39;;;;;;;4.00;1.33;;;16.90;47.40;16.60;99969.00;;;;344114;28;91954;-92
2021/04/01 00:02:51;;;;;;;3.88;1.50;;;16.90;47.40;16.60;99966.00;;;;340309;28;84720;-91
2021/04/01 00:03:03;;;;;;;3.05;1.55;;;16.90;47.40;16.70;99968.00;;;;342466;28;91937;-91
2021/04/01 00:03:15;;;;;;;2.83;1.20;;;16.90;47.20;16.70;99968.00;;;;343196;28;83149;-92
2021/04/01 00:03:27;;;;;;;3.60;1.48;;;16.90;46.90;16.60;99969.00;;;;344029;28;91523;-92
2021/04/01 00:03:40;;;;;;;3.47;1.33;;;16.90;47.30;16.80;99963.00;;;;344484;28;83811;-92
2021/04/01 00:03:52;;;;;;;3.05;1.25;;;16.90;47.20;16.90;99970.00;;;;342192;28;91976;-92
2021/04/01 00:04:03;;;;;;;3.28;1.20;;;16.90;47.10;17.00;99965.00;;;;344775;28;85067;-91
2021/04/01 00:04:15;;;;;;;3.38;1.27;;;16.90;47.00;17.00;99974.00;;;;342563;28;93204;-92
2021/04/01 00:04:26;;;;;;;3.72;1.40;;;16.90;46.90;17.00;99977.00;;;;341532;28;84339;-91
2021/04/01 00:04:37;;;;;;;3.22;1.50;;;16.90;46.60;17.10;99968.00;;;;344146;28;88744;-92
2021/04/01 00:04:49;;;;;;;3.22;1.27;;;16.90;46.50;17.00;99971.00;;;;343045;28;82359;-92
2021/04/01 00:05:00;;;;;;;3.38;1.05;;;16.90;46.60;16.90;99968.00;;;;345374;28;91419;-92
2021/04/01 00:05:12;;;;;;;4.13;1.35;;;16.90;46.80;16.80;99969.00;;;;343064;28;83302;-91
2021/04/01 00:05:24;;;;;;;3.78;1.25;;;16.90;47.50;16.70;99969.00;;;;343456;28;87959;-91
2021/04/01 00:05:36;;;;;;;3.72;1.27;;;16.90;47.50;16.60;99960.00;;;;344427;28;83097;-92
2021/04/01 00:05:47;;;;;;;4.07;1.23;;;16.90;47.90;16.70;99969.00;;;;342604;28;90885;-92
2021/04/01 00:05:58;;;;;;;4.88;1.38;;;16.80;47.30;16.70;99966.00;;;;345772;28;83833;-91
2021/04/01 00:06:12;;;;;;;4.03;1.42;;;16.80;47.50;16.80;99970.00;;;;345376;28;91587;-91
2021/04/01 00:06:23;;;;;;;3.55;1.50;;;16.80;46.90;16.90;99972.00;;;;345662;28;84911;-92
2021/04/01 00:06:35;;;;;;;3.08;1.50;;;16.80;46.90;16.90;99971.00;;;;342662;28;92036;-93
2021/04/01 00:06:46;;;;;;;3.40;1.65;;;16.80;46.80;16.90;99975.00;;;;342876;28;84696;-92
2021/04/01 00:06:57;;;;;;;2.97;1.42;;;16.80;46.60;16.80;99972.00;;;;343423;28;91979;-91
2021/04/01 00:07:11;;;;;;;2.30;0.93;;;16.80;46.80;16.90;99970.00;;;;342959;28;82574;-92
2021/04/01 00:07:22;;;;;;;2.03;0.90;;;16.80;46.80;17.00;99973.00;;;;343622;28;90315;-92
2021/04/01 00:07:34;;;;;;;2.40;1.00;;;16.80;46.70;17.10;99967.00;;;;344297;28;83774;-92
2021/04/01 00:07:45;;;;;;;2.15;0.95;;;16.80;46.70;17.10;99966.00;;;;343894;28;90853;-91
2021/04/01 00:07:57;;;;;;;3.00;0.98;;;16.90;47.10;17.00;99967.00;;;;345741;28;83457;-92
2021/04/01 00:08:09;;;;;;;4.57;1.23;;;16.90;47.00;17.00;99968.00;;;;342687;28;93106;-92
2021/04/01 00:08:20;;;;;;;4.75;1.40;;;16.90;46.90;16.90;99968.00;;;;345693;28;85038;-92
2021/04/01 00:08:32;;;;;;;3.63;1.20;;;16.90;47.00;16.80;99975.00;;;;345027;28;90780;-91
2021/04/01 00:08:43;;;;;;;2.63;0.90;;;16.90;47.20;16.80;99968.00;;;;342967;28;84153;-92
2021/04/01 00:08:55;;;;;;;2.75;0.80;;;16.90;47.20;16.80;99962.00;;;;344026;28;90610;-91
2021/04/01 00:09:06;;;;;;;2.75;0.90;;;16.90;47.20;16.80;99967.00;;;;340298;28;82713;-91
2021/04/01 00:09:17;;;;;;;2.08;0.90;;;16.90;47.00;16.90;99966.00;;;;342794;28;89114;-91
2021/04/01 00:09:29;;;;;;;1.80;0.90;;;16.90;46.90;16.90;99963.00;;;;342949;28;85515;-91
2021/04/01 00:09:40;;;;;;;2.63;0.90;;;16.90;47.10;16.70;99969.00;;;;345499;28;91712;-91
2021/04/01 00:09:51;;;;;;;3.90;0.80;;;16.90;47.40;16.90;99960.00;;;;342549;28;83611;-91
2021/04/01 00:10:06;;;;;;;4.10;0.98;;;16.80;47.10;17.00;99968.00;;;;343860;28;91640;-92
2021/04/01 00:10:20;;;;;;;4.30;1.40;;;16.90;47.00;17.10;99968.00;;;;347177;28;84556;-92
2021/04/01 00:10:38;;;;;;;4.20;1.58;;;16.90;46.80;17.00;99958.00;;;;343966;28;91157;-92
2021/04/01 00:10:50;;;;;;;3.15;1.38;;;16.90;47.30;16.90;99968.00;;;;342571;28;83510;-91
2021/04/01 00:11:01;;;;;;;3.17;1.30;;;16.90;46.90;16.80;99962.00;;;;342630;28;92251;-92
2021/04/01 00:11:13;;;;;;;3.72;1.30;;;16.90;47.20;16.60;99970.00;;;;340284;28;83637;-91
2021/04/01 00:11:25;;;;;;;3.33;1.25;;;16.90;47.30;16.60;99966.00;;;;342464;28;90765;-92
2021/04/01 00:11:36;;;;;;;3.83;1.15;;;16.90;47.50;16.80;99972.00;;;;341776;28;83644;-92
2021/04/01 00:11:47;;;;;;;4.03;1.20;;;16.90;47.00;16.90;99961.00;;;;343978;28;90927;-92
2021/04/01 00:11:59;;;;;;;4.07;1.25;;;16.90;46.90;17.00;99967.00;;;;344452;28;83425;-92
2021/04/01 00:12:10;;;;;;;3.95;1.30;;;16.90;46.90;17.10;99968.00;;;;343909;28;92821;-91
2021/04/01 00:12:22;;;;;;;3.83;1.15;;;16.90;46.90;17.10;99965.00;;;;342920;28;85063;-91
2021/04/01 00:12:33;;;;;;;3.03;0.90;;;16.90;46.80;17.10;99965.00;;;;342582;28;88428;-91
2021/04/01 00:12:45;;;;;;;3.08;1.20;;;16.90;46.70;17.10;99960.00;;;;342984;28;83738;-92
2021/04/01 00:12:56;;;;;;;3.03;1.20;;;16.90;46.70;17.10;99967.00;;;;342517;28;89472;-92
2021/04/01 00:13:08;;;;;;;2.78;1.25;;;16.90;46.80;17.00;99963.00;;;;341709;28;84770;-92
2021/04/01 00:13:19;;;;;;;1.90;0.80;;;17.00;46.70;17.00;99962.00;;;;342689;28;92081;-92
2021/04/01 00:13:31;;;;;;;2.47;0.90;;;17.00;46.50;16.90;99968.00;;;;344458;28;83317;-91
2021/04/01 00:13:43;;;;;;;2.42;0.95;;;16.90;46.50;16.80;99961.00;;;;341379;28;88545;-91
2021/04/01 00:13:55;;;;;;;4.10;1.17;;;16.90;47.00;16.70;99964.00;;;;342959;28;83665;-92
2021/04/01 00:14:06;;;;;;;5.28;1.50;;;16.90;47.10;16.60;99969.00;;;;340006;28;89223;-91
2021/04/01 00:14:20;;;;;;;5.20;1.50;;;16.90;47.20;16.50;99969.00;;;;341686;28;84732;-92
2021/04/01 00:14:34;;;;;;;3.55;1.40;;;16.80;47.00;16.50;99971.00;;;;341044;28;91262;-91
2021/04/01 00:14:45;;;;;;;3.08;1.23;;;16.80;47.10;16.60;99962.00;;;;341788;28;83317;-91
2021/04/01 00:14:57;;;;;;;4.85;1.40;;;16.80;47.20;16.50;99964.00;;;;342627;28;91996;-92
2021/04/01 00:15:10;;;;;;;5.60;1.42;;;16.70;47.20;16.50;99968.00;;;;344300;28;84706;-92
2021/04/01 00:15:21;;;;;;;3.83;1.15;;;16.70;47.20;16.70;99966.00;;;;345179;28;88009;-91
2021/04/01 00:15:39;;;;;;;3.67;1.02;;;16.70;46.90;16.60;99964.00;;;;345735;28;83594;-91
2021/04/01 00:15:52;;;;;;;4.90;1.13;;;16.70;46.70;16.70;99957.00;;;;342312;28;92849;-92
2021/04/01 00:16:06;;;;;;;4.95;1.30;;;16.70;46.60;16.70;99960.00;;;;344924;28;83700;-92
2021/04/01 00:16:20;;;;;;;3.80;1.00;;;16.70;46.40;16.60;99965.00;;;;342271;28;91192;-92
2021/04/01 00:16:32;;;;;;;3.28;1.10;;;16.70;46.70;16.60;99965.00;;;;342912;28;85201;-92
2021/04/01 00:16:44;;;;;;;2.95;1.10;;;16.70;46.80;16.50;99964.00;;;;345448;28;91355;-92
2021/04/01 00:16:55;;;;;;;2.45;1.00;;;16.70;47.10;16.50;99964.00;;;;342724;28;83531;-92
2021/04/01 00:17:07;;;;;;;3.00;0.95;;;16.70;47.20;16.50;99959.00;;;;342639;28;92236;-92
2021/04/01 00:17:19;;;;;;;3.47;1.13;;;16.70;47.20;16.60;99965.00;;;;345700;28;85271;-91
2021/04/01 00:17:30;;;;;;;4.30;1.20;;;16.70;47.30;16.50;99966.00;;;;343923;28;88086;-91
2021/04/01 00:17:42;;;;;;;5.55;1.33;;;16.70;47.70;16.60;99957.00;;;;341692;28;83722;-91
2021/04/01 00:17:53;;;;;;;4.95;1.30;;;16.60;47.20;16.60;99958.00;;;;343969;28;91857;-92
2021/04/01 00:18:19;;;;;;;6.50;1.52;;;16.70;47.10;16.60;99964.00;;;;344387;28;84763;-91
2021/04/01 00:18:30;;;;;;;6.05;1.40;;;16.60;47.20;16.50;99963.00;;;;345248;28;92999;-91
2021/04/01 00:18:42;;;;;;;4.68;1.15;;;16.60;47.20;16.60;99960.00;;;;341691;28;83806;-91
2021/04/01 00:18:53;;;;;;;4.53;1.08;;;16.60;46.90;16.70;99958.00;;;;345693;28;91258;-92
2021/04/01 00:19:05;;;;;;;4.47;0.95;;;16.60;46.80;16.70;99953.00;;;;346142;28;83867;-91
2021/04/01 00:19:16;;;;;;;5.38;1.00;;;16.60;46.90;16.70;99956.00;;;;342510;28;91719;-91
2021/04/01 00:19:28;;;;;;;4.40;0.98;;;16.60;46.90;16.70;99960.00;;;;344333;28;84690;-91
2021/04/01 00:19:39;;;;;;;3.47;0.95;;;16.60;46.80;16.60;99968.00;;;;342650;28;92218;-91
2021/04/01 00:19:51;;;;;;;3.75;1.35;;;16.60;47.30;16.50;99959.00;;;;342883;28;83580;-91
2021/04/01 00:20:05;;;;;;;4.30;1.55;;;16.60;47.50;16.30;99958.00;;;;343822;28;90156;-92
2021/04/01 00:20:16;;;;;;;4.40;1.83;;;16.60;47.50;16.10;99964.00;;;;341501;28;83398;-91
2021/04/01 00:20:28;;;;;;;3.65;1.67;;;16.60;47.40;16.20;99953.00;;;;341114;28;92747;-92
2021/04/01 00:20:39;;;;;;;3.38;1.27;;;16.60;47.60;16.40;99961.00;;;;344323;28;84337;-91
2021/04/01 00:20:52;;;;;;;3.75;1.15;;;16.60;47.40;16.60;99960.00;;;;341351;28;89746;-92
2021/04/01 00:21:08;;;;;;;3.78;1.45;;;16.60;47.30;16.70;99956.00;;;;340243;28;84099;-91
2021/04/01 00:21:19;;;;;;;2.95;1.48;;;16.60;47.50;16.80;99957.00;;;;339960;28;92375;-91
2021/04/01 00:21:30;;;;;;;2.60;1.40;;;16.60;47.30;16.80;99948.00;;;;341668;28;83382;-92
2021/04/01 00:21:42;;;;;;;3.88;1.58;;;16.60;47.30;16.80;99945.00;;;;341274;28;90851;-92
2021/04/01 00:21:53;;;;;;;4.18;1.52;;;16.60;47.20;16.70;99953.00;;;;340353;28;83786;-91
2021/04/01 00:22:06;;;;;;;3.97;1.33;;;16.60;47.20;16.60;99959.00;;;;345132;28;91092;-91
2021/04/01 00:22:18;;;;;;;2.88;1.08;;;16.60;47.50;16.40;99956.00;;;;342748;28;84862;-92
2021/04/01 00:22:29;;;;;;;5.18;1.73;;;16.60;47.70;16.50;99962.00;;;;345275;28;92868;-91
2021/04/01 00:22:41;;;;;;;5.18;1.63;;;16.60;47.60;16.40;99954.00;;;;344425;28;83743;-92
2021/04/01 00:22:53;;;;;;;4.40;0.95;;;16.60;47.60;16.50;99959.00;;;;341214;28;91052;-91
2021/04/01 00:23:04;;;;;;;2.95;0.90;;;16.60;47.40;16.50;99956.00;;;;341664;28;83388;-91
2021/04/01 00:23:16;;;;;;;2.55;1.10;;;16.60;47.50;16.50;99957.00;;;;344128;28;89187;-91
2021/04/01 00:23:27;;;;;;;2.60;1.20;;;16.60;47.40;16.40;99959.00;;;;344119;28;83670;-92
2021/04/01 00:23:39;;;;;;;2.95;1.27;;;16.60;48.00;16.40;99951.00;;;;344101;28;91592;-91
2021/04/01 00:23:52;;;;;;;4.38;1.60;;;16.50;48.00;16.40;99956.00;;;;344381;28;84233;-92
2021/04/01 00:24:04;;;;;;;5.18;1.92;;;16.50;48.00;16.40;99955.00;;;;344032;28;90990;-92
2021/04/01 00:24:15;;;;;;;4.15;2.00;;;16.50;48.00;16.30;99958.00;;;;341699;28;85187;-92
2021/04/01 00:24:26;;;;;;;3.30;1.90;;;16.50;48.00;16.30;99957.00;;;;345026;28;93213;-91
2021/04/01 00:24:38;;;;;;;2.75;1.20;;;16.50;47.80;16.30;99957.00;;;;340052;28;83936;-91
2021/04/01 00:24:49;;;;;;;4.15;1.27;;;16.50;48.00;16.30;99948.00;;;;344390;28;90228;-91
2021/04/01 00:25:02;;;;;;;4.15;1.25;;;16.40;47.80;16.40;99951.00;;;;342581;28;82503;-92
2021/04/01 00:25:15;;;;;;;2.80;1.40;;;16.40;47.90;16.20;99948.00;;;;342408;28;90862;-91
2021/04/01 00:25:27;;;;;;;5.68;1.60;;;16.40;47.90;16.20;99956.00;;;;344332;28;83376;-92
2021/04/01 00:25:39;;;;;;;5.63;1.38;;;16.40;47.90;16.20;99957.00;;;;344174;28;88422;-92
2021/04/01 00:25:50;;;;;;;6.38;1.10;;;16.30;47.90;16.10;99963.00;;;;343139;28;83547;-92
2021/04/01 00:26:02;;;;;;;3.22;0.90;;;16.30;48.10;16.10;99960.00;;;;344068;28;89640;-92
2021/04/01 00:26:13;;;;;;;3.13;0.77;;;16.30;48.30;16.10;99955.00;;;;342996;28;83732;-92
2021/04/01 00:26:25;;;;;;;3.55;1.00;;;16.30;48.20;16.20;99953.00;;;;344024;28;89170;-91
2021/04/01 00:26:36;;;;;;;4.65;1.10;;;16.30;48.10;16.10;99959.00;;;;345676;28;84573;-91
2021/04/01 00:26:47;;;;;;;4.57;1.27;;;16.30;48.80;16.10;99957.00;;;;344129;28;90952;-92
2021/04/01 00:26:59;;;;;;;4.43;1.30;;;16.30;48.40;16.00;99958.00;;;;341620;28;84459;-91
2021/04/01 00:27:10;;;;;;;3.40;1.30;;;16.30;48.50;16.00;99966.00;;;;343532;28;90939;-92
2021/04/01 00:27:22;;;;;;;2.95;1.15;;;16.30;48.60;16.00;99962.00;;;;341655;28;83814;-92
2021/04/01 00:27:33;;;;;;;4.43;1.40;;;16.30;48.60;16.20;99961.00;;;;344100;28;92016;-92
2021/04/01 00:27:45;;;;;;;4.68;1.33;;;16.30;48.80;16.30;99951.00;;;;344399;28;84933;-91
2021/04/01 00:27:56;;;;;;;3.78;1.10;;;16.30;48.60;16.30;99956.00;;;;342802;28;89114;-92
2021/04/01 00:28:08;;;;;;;3.65;0.98;;;16.30;48.20;16.20;99958.00;;;;342902;28;85410;-91
2021/04/01 00:28:19;;;;;;;4.22;1.05;;;16.30;48.50;16.20;99953.00;;;;344665;28;91514;-91
2021/04/01 00:28:31;;;;;;;5.13;1.20;;;16.30;48.40;16.40;99955.00;;;;344456;28;82458;-92
2021/04/01 00:28:42;;;;;;;5.03;1.30;;;16.30;48.20;16.50;99956.00;;;;341153;28;92555;-91
2021/04/01 00:28:54;;;;;;;4.40;1.30;;;16.30;48.20;16.50;99958.00;;;;344820;28;83131;-92
2021/04/01 00:29:05;;;;;;;4.60;1.25;;;16.30;48.00;16.20;99950.00;;;;345256;28;92023;-91
2021/04/01 00:29:17;;;;;;;5.30;1.30;;;16.30;48.10;16.20;99958.00;;;;342970;28;84505;-92
2021/04/01 00:29:28;;;;;;;5.32;1.35;;;16.30;48.50;16.20;99954.00;;;;345200;28;91838;-91
2021/04/01 00:29:40;;;;;;;4.50;1.23;;;16.30;48.50;16.30;99956.00;;;;347010;28;84149;-92
2021/04/01 00:29:52;;;;;;;4.13;1.10;;;16.30;48.20;16.30;99950.00;;;;344000;28;91741;-92
2021/04/01 00:30:05;;;;;;;3.88;1.30;;;16.30;48.20;16.30;99956.00;;;;345882;28;83270;-92
2021/04/01 00:30:17;;;;;;;3.80;1.30;;;16.30;48.10;16.40;99951.00;;;;343948;28;92692;-91
2021/04/01 00:30:29;;;;;;;3.92;1.23;;;16.30;48.00;16.40;99953.00;;;;344291;28;83733;-92
2021/04/01 00:30:40;;;;;;;3.67;1.00;;;16.30;48.00;16.30;99950.00;;;;343656;28;91082;-91
2021/04/01 00:30:51;;;;;;;3.03;0.95;;;16.30;48.10;16.20;99956.00;;;;342606;28;83541;-92
2021/04/01 00:31:03;;;;;;;3.08;0.98;;;16.30;48.40;16.20;99952.00;;;;344738;28;92073;-91
2021/04/01 00:31:14;;;;;;;2.75;0.90;;;16.30;48.40;16.20;99950.00;;;;344325;28;83599;-91
2021/04/01 00:31:26;;;;;;;2.13;0.93;;;16.30;48.20;16.20;99956.00;;;;342685;28;90935;-93
2021/04/01 00:31:38;;;;;;;1.80;0.90;;;16.30;48.20;16.10;99960.00;;;;344368;28;83741;-91
2021/04/01 00:31:50;;;;;;;3.45;1.15;;;16.30;48.60;16.20;99950.00;;;;342450;28;92160;-91
2021/04/01 00:32:02;;;;;;;3.67;1.13;;;16.30;48.30;16.20;99957.00;;;;342941;28;83175;-92
2021/04/01 00:32:14;;;;;;;3.63;1.17;;;16.30;48.30;16.10;99951.00;;;;341207;28;90941;-91
2021/04/01 00:32:25;;;;;;;3.03;1.10;;;16.30;48.80;16.10;99953.00;;;;344508;28;85385;-91
2021/04/01 00:32:37;;;;;;;6.25;1.17;;;16.30;48.80;16.00;99954.00;;;;342717;28;91609;-91
2021/04/01 00:32:48;;;;;;;7.70;1.13;;;16.20;48.90;16.00;99958.00;;;;344334;28;85076;-92
2021/04/01 00:33:00;;;;;;;6.75;1.30;;;16.20;48.70;16.00;99952.00;;;;342656;28;90834;-92
2021/04/01 00:33:11;;;;;;;4.45;1.10;;;16.20;48.40;16.20;99950.00;;;;344291;28;85364;-92
2021/04/01 00:33:23;;;;;;;3.55;1.08;;;16.20;48.80;16.30;99952.00;;;;344155;28;88482;-91
2021/04/01 00:33:34;;;;;;;3.60;1.00;;;16.20;48.40;16.40;99956.00;;;;343122;28;83315;-92
2021/04/01 00:33:46;;;;;;;4.32;1.00;;;16.20;48.60;16.20;99950.00;;;;339676;28;91757;-92
2021/04/01 00:33:58;;;;;;;3.78;1.10;;;16.20;48.80;16.30;99945.00;;;;342452;28;82663;-92
2021/04/01 00:34:10;;;;;;;3.22;1.08;;;16.20;48.60;16.40;99952.00;;;;342306;28;92157;-92
2021/04/01 00:34:21;;;;;;;3.50;1.23;;;16.30;48.40;16.50;99954.00;;;;344195;28;85681;-91
2021/04/01 00:34:32;;;;;;;4.50;1.20;;;16.30;48.50;16.60;99946.00;;;;341144;28;92009;-92
2021/04/01 00:34:44;;;;;;;4.35;1.25;;;16.30;48.60;16.50;99951.00;;;;344067;28;83951;-92
2021/04/01 00:34:55;;;;;;;3.22;1.38;;;16.30;48.40;16.60;99952.00;;;;343657;28;91329;-92
2021/04/01 00:35:07;;;;;;;2.42;1.27;;;16.30;48.30;16.60;99956.00;;;;343016;28;83375;-91
2021/04/01 00:35:19;;;;;;;2.38;1.40;;;16.30;48.30;16.60;99953.00;;;;342427;28;92034;-91
2021/04/01 00:35:30;;;;;;;3.20;1.30;;;16.40;48.40;16.50;99948.00;;;;344397;28;83230;-91
2021/04/01 00:35:41;;;;;;;3.25;1.33;;;16.40;49.00;16.50;99949.00;;;;344022;28;89632;-91
2021/04/01 00:35:53;;;;;;;3.83;1.40;;;16.40;48.10;16.60;99943.00;;;;342932;28;84889;-91
2021/04/01 00:36:05;;;;;;;4.07;1.27;;;16.40;48.20;16.50;99955.00;;;;341254;28;92663;-91
2021/04/01 00:36:16;;;;;;;4.18;1.23;;;16.40;48.20;16.50;99942.00;;;;344349;28;83627;-91
2021/04/01 00:36:28;;;;;;;3.60;1.08;;;16.40;48.10;16.60;99951.00;;;;343910;28;90884;-92
2021/04/01 00:36:39;;;;;;;2.70;1.38;;;16.40;48.00;16.60;99948.00;;;;343090;28;83361;-91
2021/04/01 00:36:51;;;;;;;2.20;1.35;;;16.40;48.10;16.40;99939.00;;;;342466;28;91703;-92
2021/04/01 00:37:02;;;;;;;2.03;1.27;;;16.40;48.30;16.40;99948.00;;;;345549;28;84997;-92
2021/04/01 00:37:14;;;;;;;1.80;1.10;;;16.40;48.30;16.50;99943.00;;;;344027;28;92260;-91
2021/04/01 00:37:25;;;;;;;2.45;1.63;;;16.40;48.40;16.40;99949.00;;;;342897;28;85325;-91
2021/04/01 00:37:36;;;;;;;2.70;1.50;;;16.40;48.70;16.50;99948.00;;;;342638;28;90684;-91
2021/04/01 00:37:48;;;;;;;2.50;1.15;;;16.40;48.50;16.50;99954.00;;;;344104;28;85302;-92
2021/04/01 00:38:00;;;;;;;3.22;1.15;;;16.40;48.60;16.40;99950.00;;;;344087;28;90143;-92
2021/04/01 00:38:12;;;;;;;4.32;1.48;;;16.40;48.70;16.40;99952.00;;;;344375;28;83315;-92
2021/04/01 00:38:23;;;;;;;4.28;1.50;;;16.40;48.70;16.30;99948.00;;;;344102;28;89591;-91
2021/04/01 00:38:35;;;;;;;4.53;1.40;;;16.40;49.00;16.30;99949.00;;;;345706;28;83696;-91
2021/04/01 00:38:46;;;;;;;5.13;1.42;;;16.40;48.90;16.30;99945.00;;;;343957;28;91292;-92
2021/04/01 00:38:58;;;;;;;4.95;1.42;;;16.40;48.70;16.30;99947.00;;;;339926;28;83652;-92
2021/04/01 00:39:09;;;;;;;5.15;1.65;;;16.40;48.70;16.50;99940.00;;;;342440;28;92138;-92
2021/04/01 00:39:21;;;;;;;4.68;1.60;;;16.40;48.50;16.50;99946.00;;;;344432;28;83406;-91
2021/04/01 00:39:32;;;;;;;3.10;1.30;;;16.40;48.40;16.50;99941.00;;;;339960;28;92066;-92
2021/04/01 00:39:43;;;;;;;2.05;0.98;;;16.40;48.40;16.50;99946.00;;;;344288;28;85108;-91
2021/04/01 00:39:55;;;;;;;2.90;0.90;;;16.40;48.40;16.40;99946.00;;;;342071;28;93458;-92
2021/04/01 00:40:07;;;;;;;4.70;1.38;;;16.40;48.50;16.60;99941.00;;;;344313;28;84731;-92
2021/04/01 00:40:23;;;;;;;4.25;1.45;;;16.40;48.40;16.60;99941.00;;;;340735;28;92031;-92
2021/04/01 00:40:34;;;;;;;3.08;1.15;;;16.40;48.50;16.40;99944.00;;;;342677;28;83513;-92
2021/04/01 00:40:46;;;;;;;2.85;1.10;;;16.40;48.40;16.40;99945.00;;;;341313;28;92124;-92
2021/04/01 00:40:57;;;;;;;2.28;0.90;;;16.40;48.80;16.30;99940.00;;;;342989;28;82819;-92
2021/04/01 00:41:08;;;;;;;3.55;1.27;;;16.40;48.40;16.40;99945.00;;;;342577;28;90878;-92
2021/04/01 00:41:20;;;;;;;4.07;1.50;;;16.40;48.10;16.50;99945.00;;;;343039;28;84675;-91
2021/04/01 00:41:31;;;;;;;4.30;1.50;;;16.40;48.00;16.50;99947.00;;;;344082;28;91777;-92
2021/04/01 00:41:43;;;;;;;3.30;1.42;;;16.40;48.20;16.40;99941.00;;;;343036;28;83302;-92
2021/04/01 00:41:54;;;;;;;3.72;1.45;;;16.40;48.50;16.30;99938.00;;;;345086;28;91502;-92
2021/04/01 00:42:06;;;;;;;4.05;1.38;;;16.40;48.70;16.30;99941.00;;;;345620;28;83630;-92
2021/04/01 00:42:17;;;;;;;3.97;1.38;;;16.40;48.60;16.40;99943.00;;;;345338;28;91977;-92
2021/04/01 00:42:29;;;;;;;3.83;1.48;;;16.40;48.20;16.50;99941.00;;;;342937;28;83469;-91
2021/04/01 00:42:40;;;;;;;4.07;1.45;;;16.40;48.20;16.50;99944.00;;;;342722;28;88152;-92
2021/04/01 00:42:52;;;;;;;3.22;1.38;;;16.40;48.00;16.50;99934.00;;;;343878;28;85012;-92
2021/04/01 00:43:04;;;;;;;2.97;1.33;;;16.40;48.20;16.60;99942.00;;;;341922;28;91541;-92
2021/04/01 00:43:15;;;;;;;2.22;1.25;;;16.40;48.30;16.60;99938.00;;;;344357;28;84434;-92
2021/04/01 00:43:26;;;;;;;3.92;1.15;;;16.40;48.40;16.70;99944.00;;;;341319;28;90810;-92
2021/04/01 00:43:38;;;;;;;4.25;1.20;;;16.40;48.30;16.60;99947.00;;;;344207;28;83948;-91
2021/04/01 00:43:50;;;;;;;4.20;1.23;;;16.40;48.20;16.70;99930.00;;;;339767;28;92823;-92
2021/04/01 00:44:03;;;;;;;3.35;1.30;;;16.40;48.20;16.70;99940.00;;;;341681;28;83884;-91
2021/04/01 00:44:16;;;;;;;2.85;1.33;;;16.50;48.20;16.70;99935.00;;;;341471;28;89574;-92
2021/04/01 00:44:28;;;;;;;3.35;1.48;;;16.40;48.00;16.60;99929.00;;;;341425;28;83638;-92
2021/04/01 00:44:42;;;;;;;3.75;1.42;;;16.40;47.90;16.60;99941.00;;;;344029;28;92223;-92
2021/04/01 00:45:06;;;;;;;3.78;1.45;;;16.50;48.00;16.70;99937.00;;;;340116;28;83808;-90
2021/04/01 00:45:18;;;;;;;3.38;1.55;;;16.50;48.40;16.70;99940.00;;;;342347;28;90041;-91
2021/04/01 00:45:30;;;;;;;4.10;1.60;;;16.50;48.50;16.70;99942.00;;;;341763;28;84698;-92
2021/04/01 00:45:42;;;;;;;4.25;1.38;;;16.50;48.40;16.60;99937.00;;;;339966;28;91047;-91
2021/04/01 00:45:53;;;;;;;3.85;1.25;;;16.50;48.40;16.60;99938.00;;;;342802;28;83714;-91
2021/04/01 00:46:05;;;;;;;3.53;1.40;;;16.50;48.00;16.70;99940.00;;;;342661;28;91868;-91
2021/04/01 00:46:17;;;;;;;4.53;1.38;;;16.50;48.10;16.50;99942.00;;;;342967;28;84810;-92
2021/04/01 00:46:28;;;;;;;4.75;1.40;;;16.50;48.30;16.40;99936.00;;;;341385;28;90658;-91
2021/04/01 00:46:39;;;;;;;5.20;1.50;;;16.40;48.70;16.50;99941.00;;;;345994;28;85008;-92
2021/04/01 00:46:51;;;;;;;3.38;1.33;;;16.50;48.50;16.50;99939.00;;;;342822;28;91208;-91
2021/04/01 00:47:07;;;;;;;3.38;1.60;;;16.50;48.40;16.60;99934.00;;;;340525;28;84646;-91
2021/04/01 00:47:18;;;;;;;3.60;1.70;;;16.40;48.50;16.60;99941.00;;;;341491;28;91178;-91
2021/04/01 00:47:49;;;;;;;4.88;1.60;;;16.50;48.50;16.60;99947.00;;;;344766;28;84893;-92
2021/04/01 00:48:01;;;;;;;2.60;1.15;;;16.50;48.40;16.60;99941.00;;;;341749;28;88490;-92
2021/04/01 00:48:12;;;;;;;2.88;1.30;;;16.50;48.30;16.60;99942.00;;;;343467;28;83500;-91
2021/04/01 00:48:23;;;;;;;3.55;1.40;;;16.50;48.40;16.70;99940.00;;;;343061;28;90350;-92
2021/04/01 00:48:35;;;;;;;4.22;1.48;;;16.40;48.30;16.60;99936.00;;;;342048;28;84846;-92
2021/04/01 00:48:47;;;;;;;4.70;1.58;;;16.50;48.40;16.70;99936.00;;;;343937;28;90814;-92
2021/04/01 00:48:58;;;;;;;5.20;1.58;;;16.50;48.30;16.70;99945.00;;;;342806;28;84809;-91
2021/04/01 00:49:09;;;;;;;5.10;1.58;;;16.50;48.10;16.60;99930.00;;;;341652;28;93138;-92
2021/04/01 00:49:21;;;;;;;4.93;1.50;;;16.50;48.10;16.40;99942.00;;;;344721;28;85049;-92
2021/04/01 00:49:35;;;;;;;5.57;1.42;;;16.50;48.70;16.30;99933.00;;;;343163;28;92150;-92
2021/04/01 00:49:46;;;;;;;6.10;1.42;;;16.50;48.90;16.50;99937.00;;;;340766;28;83604;-92
2021/04/01 00:49:58;;;;;;;4.22;1.35;;;16.50;48.80;16.50;99932.00;;;;340415;28;89131;-91
2021/04/01 00:50:21;;;;;;;4.47;1.70;;;16.50;48.60;16.60;99942.00;;;;342133;28;83708;-91
2021/04/01 00:50:32;;;;;;;3.58;1.40;;;16.50;48.50;16.70;99943.00;;;;341520;28;92474;-91
2021/04/01 00:50:44;;;;;;;3.60;1.40;;;16.50;48.50;16.70;99938.00;;;;343597;28;83295;-91
2021/04/01 00:50:55;;;;;;;4.43;1.23;;;16.50;48.50;16.70;99930.00;;;;341776;28;91988;-91
2021/04/01 00:51:07;;;;;;;3.80;1.20;;;16.50;48.40;16.70;99940.00;;;;345854;28;83575;-91
2021/04/01 00:51:18;;;;;;;3.35;1.00;;;16.50;48.30;16.70;99939.00;;;;343136;28;90675;-92
2021/04/01 00:51:29;;;;;;;3.35;1.00;;;16.50;48.40;16.70;99941.00;;;;342118;28;85049;-92
2021/04/01 00:51:41;;;;;;;2.97;1.10;;;16.50;48.20;16.60;99942.00;;;;341840;28;90606;-92
2021/04/01 00:51:52;;;;;;;2.72;1.17;;;16.50;48.30;16.40;99937.00;;;;342938;28;83670;-92
2021/04/01 00:52:05;;;;;;;3.22;1.25;;;16.50;48.50;16.30;99936.00;;;;341768;28;88364;-92
2021/04/01 00:52:20;;;;;;;3.90;1.38;;;16.50;48.60;16.30;99940.00;;;;342233;28;83848;-91
2021/04/01 00:52:32;;;;;;;4.47;1.55;;;16.50;48.60;16.40;99940.00;;;;342693;28;92391;-92
2021/04/01 00:52:43;;;;;;;4.00;1.50;;;16.40;48.40;16.40;99936.00;;;;343509;28;83352;-91
2021/04/01 00:52:55;;;;;;;3.60;1.80;;;16.40;48.20;16.40;99937.00;;;;344252;28;89959;-92
2021/04/01 00:53:07;;;;;;;3.08;1.63;;;16.40;48.30;16.40;99940.00;;;;344831;28;83856;-92
2021/04/01 00:53:18;;;;;;;4.55;1.58;;;16.40;48.30;16.40;99945.00;;;;345931;28;91125;-92
2021/04/01 00:53:30;;;;;;;4.35;1.30;;;16.40;48.40;16.40;99939.00;;;;346225;28;84790;-91
2021/04/01 00:53:41;;;;;;;4.28;1.40;;;16.40;48.30;16.40;99939.00;;;;345924;28;90614;-91
2021/04/01 00:53:53;;;;;;;2.70;1.13;;;16.40;47.90;16.50;99942.00;;;;346296;28;84152;-90
2021/04/01 00:54:04;;;;;;;3.15;1.27;;;16.40;47.90;16.60;99944.00;;;;343219;28;91234;-92
2021/04/01 00:54:15;;;;;;;3.80;1.15;;;16.40;48.10;16.60;99935.00;;;;346286;28;84966;-91